Erie, Pennsylvania
Current Conditions -  °F | °C
As of 7:51 AM on Thursday 30 Oct 2014 (Local Time) from KERI Reporting Station
Overcast Overcast  
Wind Chill: 41°   Ceiling: 2100
Heat Index: 46°   Visibility: 10mi
Dew Point: 37°   Wind: 9mph
Humidity: 71%   Direction: 340°NNW
Pressure: 30.08"   Gusts: NA
Location:  42.13°N, 80.08°W
Report Text: KERI 301151Z 34008KT 10SM BKN021 OVC048 08/03 A3008 RMK AO2 SLP189 70007 T00780028 10094 20078 51012
Loading
Personal Weather Stations






























Interactive Weather Map
Tropical Storm Tracking
New forecast layout! Learn more

10-Day Weather Forecast

Advertisements
Track Severe Weather on mobile